createdAt,value
2018-11-29T00:00:48.307Z,64.27
2018-11-29T00:03:17.090Z,54.03
2018-11-29T00:05:45.238Z,63.90
2018-11-29T00:08:13.369Z,46.58
2018-11-29T00:10:41.578Z,50.58
2018-11-29T00:13:09.894Z,55.98
2018-11-29T00:15:38.558Z,54.77
2018-11-29T00:18:06.836Z,50.40
2018-11-29T00:20:35.098Z,56.68
2018-11-29T00:23:03.266Z,48.13
2018-11-29T00:25:31.367Z,56.10
2018-11-29T00:27:59.556Z,50.00
2018-11-29T00:30:27.793Z,51.88
2018-11-29T00:32:56.233Z,45.73
2018-11-29T00:35:24.356Z,53.60
2018-11-29T00:37:52.471Z,49.67
2018-11-29T00:40:21.564Z,57.80
2018-11-29T00:42:49.742Z,53.73
2018-11-29T00:45:18.867Z,46.20
2018-11-29T00:47:47.607Z,52.45
2018-11-29T00:50:16.478Z,57.10
2018-11-29T00:52:45.492Z,52.25
2018-11-29T00:55:15.998Z,57.08
2018-11-29T00:57:44.134Z,55.20
2018-11-29T01:00:14.301Z,49.33
2018-11-29T01:02:42.616Z,56.35
2018-11-29T01:05:10.781Z,47.73
2018-11-29T01:07:39.284Z,53.33
2018-11-29T01:10:15.212Z,57.10
2018-11-29T01:12:43.610Z,52.00
2018-11-29T01:15:20.715Z,55.45
2018-11-29T01:17:49.671Z,47.25
2018-11-29T01:20:18.746Z,50.88
2018-11-29T01:22:46.926Z,49.98
2018-11-29T01:25:15.642Z,49.88
2018-11-29T01:27:46.388Z,58.30
2018-11-29T01:30:15.416Z,54.03
2018-11-29T01:32:43.666Z,56.28
2018-11-29T01:35:12.774Z,53.70
2018-11-29T01:37:41.157Z,49.67
2018-11-29T01:40:16.364Z,52.90
2018-11-29T01:42:46.138Z,44.63
2018-11-29T01:45:14.226Z,49.63
2018-11-29T01:47:42.355Z,52.98
2018-11-29T01:50:10.488Z,52.20
2018-11-29T01:52:38.622Z,46.80
2018-11-29T01:55:08.652Z,56.90
2018-11-29T01:57:36.945Z,53.25
2018-11-29T02:00:08.309Z,41.45
2018-11-29T02:02:36.449Z,55.10
2018-11-29T02:05:05.569Z,51.90
2018-11-29T02:07:33.741Z,45.38
2018-11-29T02:11:11.183Z,53.25
2018-11-29T02:13:39.337Z,51.70
2018-11-29T02:16:07.762Z,43.60
2018-11-29T02:18:35.977Z,43.68
2018-11-29T02:21:04.151Z,39.80
2018-11-29T02:23:32.346Z,49.33
2018-11-29T02:26:00.515Z,44.38
2018-11-29T02:28:28.713Z,50.38
2018-11-29T02:30:56.885Z,45.23
2018-11-29T02:33:24.986Z,39.03
2018-11-29T02:35:53.192Z,43.90
2018-11-29T02:38:21.853Z,48.95
2018-11-29T02:40:50.153Z,49.63
2018-11-29T02:43:18.477Z,51.23
2018-11-29T02:45:46.609Z,48.73
2018-11-29T02:48:14.720Z,44.58
2018-11-29T02:50:43.439Z,45.40
2018-11-29T02:53:11.657Z,37.50
2018-11-29T02:55:40.403Z,52.67
2018-11-29T02:58:08.610Z,40.30
2018-11-29T03:00:36.783Z,51.02
2018-11-29T03:03:05.235Z,44.08
2018-11-29T03:05:34.261Z,51.75
2018-11-29T03:08:02.417Z,55.92
2018-11-29T03:10:30.582Z,46.37
2018-11-29T03:12:58.746Z,51.63
2018-11-29T03:15:26.899Z,43.87
2018-11-29T03:17:55.091Z,38.25
2018-11-29T03:20:23.332Z,45.50
2018-11-29T03:22:51.582Z,44.03
2018-11-29T03:25:19.718Z,40.92
2018-11-29T03:27:47.934Z,51.08
2018-11-29T03:30:17.037Z,42.98
2018-11-29T03:32:45.226Z,46.15
2018-11-29T03:35:14.166Z,45.28
2018-11-29T03:37:42.339Z,48.90
2018-11-29T03:40:12.763Z,47.55
2018-11-29T03:42:40.985Z,50.20
2018-11-29T03:45:10.480Z,55.52
2018-11-29T03:47:38.587Z,43.40
2018-11-29T03:50:11.103Z,44.03
2018-11-29T03:52:39.222Z,41.00
2018-11-29T03:55:08.399Z,41.30
2018-11-29T03:57:37.516Z,42.67
2018-11-29T04:00:08.644Z,35.13
2018-11-29T04:02:36.785Z,38.92
2018-11-29T04:05:05.398Z,50.38
2018-11-29T04:07:33.542Z,45.03
2018-11-29T04:10:01.680Z,41.95
2018-11-29T04:12:29.842Z,42.88
2018-11-29T04:14:57.898Z,41.80
2018-11-29T04:17:26.139Z,43.33
2018-11-29T04:19:54.312Z,37.05
2018-11-29T04:22:22.487Z,33.35
2018-11-29T04:24:50.590Z,51.73
2018-11-29T04:27:18.762Z,39.53
2018-11-29T04:29:47.642Z,42.62
2018-11-29T04:32:16.042Z,39.05
2018-11-29T04:34:44.231Z,48.75
2018-11-29T04:37:12.342Z,40.33
2018-11-29T04:39:40.514Z,43.10
2018-11-29T04:42:08.688Z,40.03
2018-11-29T04:44:36.808Z,37.30
2018-11-29T04:47:04.938Z,32.42
2018-11-29T04:49:33.854Z,43.25
2018-11-29T04:52:02.160Z,46.58
2018-11-29T04:54:30.405Z,30.45
2018-11-29T04:56:58.561Z,32.55
2018-11-29T04:59:26.670Z,33.05
2018-11-29T05:01:54.908Z,37.38
2018-11-29T05:04:23.068Z,38.60
2018-11-29T05:06:51.186Z,36.45
2018-11-29T05:09:19.295Z,39.98
2018-11-29T05:11:48.018Z,43.83
2018-11-29T05:14:16.211Z,43.10
2018-11-29T05:16:44.371Z,42.88
2018-11-29T05:19:12.500Z,42.25
2018-11-29T05:21:40.694Z,38.28
2018-11-29T05:24:08.848Z,40.33
2018-11-29T05:26:37.196Z,35.73
2018-11-29T05:29:05.542Z,35.90
2018-11-29T05:31:33.657Z,32.35
2018-11-29T05:34:01.790Z,32.63
2018-11-29T05:36:29.928Z,35.73
2018-11-29T05:38:58.060Z,39.65
2018-11-29T05:41:26.234Z,40.43
2018-11-29T05:43:54.407Z,37.55
2018-11-29T05:46:22.746Z,41.45
2018-11-29T05:48:50.918Z,38.42
2018-11-29T05:51:19.038Z,40.88
2018-11-29T05:53:47.224Z,30.37
2018-11-29T05:56:15.392Z,40.33
2018-11-29T05:58:43.522Z,36.68
2018-11-29T06:01:15.370Z,47.83
2018-11-29T06:03:43.636Z,35.15
2018-11-29T06:06:11.780Z,38.65
2018-11-29T06:08:40.522Z,47.20
2018-11-29T06:11:08.689Z,40.30
2018-11-29T06:13:36.864Z,33.18
2018-11-29T06:16:05.070Z,46.90
2018-11-29T06:18:33.378Z,42.48
2018-11-29T06:21:01.513Z,36.83
2018-11-29T06:23:30.956Z,34.25
2018-11-29T06:25:59.138Z,36.80
2018-11-29T06:28:27.308Z,34.20
2018-11-29T06:30:55.438Z,35.17
2018-11-29T06:33:24.094Z,31.42
2018-11-29T06:35:52.233Z,30.62
2018-11-29T06:38:20.477Z,32.50
2018-11-29T06:40:48.659Z,35.45
2018-11-29T06:43:16.930Z,36.35
2018-11-29T06:45:45.112Z,31.37
2018-11-29T06:48:13.514Z,35.10
2018-11-29T06:50:41.804Z,34.98
2018-11-29T06:53:15.369Z,40.43
2018-11-29T06:55:43.653Z,38.17
2018-11-29T06:58:11.824Z,35.45
2018-11-29T07:00:39.937Z,33.75
2018-11-29T07:03:08.191Z,36.53
2018-11-29T07:05:36.371Z,31.65
2018-11-29T07:08:04.598Z,36.63
2018-11-29T07:10:34.370Z,31.75
2018-11-29T07:13:03.268Z,37.33
2018-11-29T07:15:31.471Z,27.87
2018-11-29T07:17:59.635Z,31.77
2018-11-29T07:20:27.902Z,42.30
2018-11-29T07:22:56.048Z,30.08
2018-11-29T07:25:24.572Z,40.60
2018-11-29T07:27:52.777Z,32.55
2018-11-29T07:30:20.970Z,34.23
2018-11-29T07:32:49.138Z,28.17
2018-11-29T07:35:17.436Z,31.42
2018-11-29T07:37:45.583Z,31.80
2018-11-29T07:40:15.791Z,25.52
2018-11-29T07:42:45.313Z,27.60
2018-11-29T07:45:14.703Z,34.05
2018-11-29T07:47:42.921Z,30.80
2018-11-29T07:50:13.284Z,30.23
2018-11-29T07:52:41.615Z,35.63
2018-11-29T07:55:11.463Z,27.10
2018-11-29T07:57:39.769Z,27.45
2018-11-29T08:00:09.610Z,40.65
2018-11-29T08:02:37.902Z,30.95
2018-11-29T08:05:08.653Z,35.83
2018-11-29T08:07:36.985Z,40.35
2018-11-29T08:10:08.035Z,30.17
2018-11-29T08:12:36.216Z,31.87
2018-11-29T08:15:04.389Z,30.70
2018-11-29T08:17:32.597Z,31.50
2018-11-29T08:20:00.815Z,24.80
2018-11-29T08:22:29.007Z,28.40
2018-11-29T08:24:57.216Z,36.55
2018-11-29T08:27:25.449Z,40.00
2018-11-29T08:29:54.137Z,46.00
2018-11-29T08:32:22.281Z,42.43
2018-11-29T08:34:50.455Z,41.80
2018-11-29T08:37:18.561Z,33.73
2018-11-29T08:39:46.696Z,42.58
2018-11-29T08:42:14.845Z,53.98
2018-11-29T08:44:43.065Z,32.17
2018-11-29T08:47:11.271Z,30.48
2018-11-29T08:49:39.384Z,36.30
2018-11-29T08:52:07.597Z,38.58
2018-11-29T08:54:35.687Z,46.15
2018-11-29T08:57:03.835Z,39.30
2018-11-29T08:59:31.984Z,46.75
2018-11-29T09:02:00.445Z,53.90
2018-11-29T09:04:28.712Z,42.40
2018-11-29T09:06:56.905Z,48.63
2018-11-29T09:09:25.166Z,31.73
2018-11-29T09:11:53.396Z,39.03
2018-11-29T09:14:21.569Z,33.88
2018-11-29T09:16:49.703Z,34.83
2018-11-29T09:19:18.637Z,36.60
2018-11-29T09:21:46.849Z,31.35
2018-11-29T09:24:15.096Z,33.63
2018-11-29T09:26:43.229Z,35.25
2018-11-29T09:29:11.331Z,32.17
2018-11-29T09:31:39.471Z,34.80
2018-11-29T09:34:07.595Z,39.50
2018-11-29T09:36:35.874Z,45.70
2018-11-29T09:39:05.317Z,32.60
2018-11-29T09:41:33.600Z,29.12
2018-11-29T09:44:01.731Z,30.20
2018-11-29T09:46:29.881Z,29.57
2018-11-29T09:48:58.179Z,32.10
2018-11-29T09:51:26.397Z,37.40
2018-11-29T09:53:54.523Z,30.60
2018-11-29T09:56:22.689Z,32.15
2018-11-29T09:58:50.987Z,43.55
2018-11-29T10:01:19.099Z,49.48
2018-11-29T10:03:47.241Z,47.98
2018-11-29T10:06:15.361Z,40.67
2018-11-29T10:08:43.466Z,36.58
2018-11-29T10:11:11.609Z,39.23
2018-11-29T10:13:46.023Z,34.45
2018-11-29T10:16:08.351Z,34.58
2018-11-29T10:18:36.528Z,33.02
2018-11-29T10:21:04.859Z,36.25
2018-11-29T10:23:32.982Z,47.40
2018-11-29T10:26:01.119Z,31.15
2018-11-29T10:28:29.237Z,41.65
2018-11-29T10:30:59.089Z,36.15
2018-11-29T10:33:27.382Z,33.90
2018-11-29T10:35:59.066Z,36.48
2018-11-29T10:38:23.670Z,30.60
2018-11-29T10:40:51.807Z,29.67
2018-11-29T10:43:19.950Z,27.50
2018-11-29T10:45:48.056Z,34.60
2018-11-29T10:48:19.025Z,34.80
2018-11-29T10:50:47.141Z,27.13
2018-11-29T10:53:15.297Z,30.15
2018-11-29T10:55:43.427Z,26.85
2018-11-29T10:58:11.631Z,32.40
2018-11-29T11:00:45.248Z,48.90
2018-11-29T11:03:21.167Z,39.85
2018-11-29T11:05:52.361Z,34.27
2018-11-29T11:08:21.618Z,30.35
2018-11-29T11:10:49.985Z,31.90
2018-11-29T11:13:18.213Z,33.20
2018-11-29T11:15:46.449Z,33.10
2018-11-29T11:18:15.381Z,27.27
2018-11-29T11:20:44.847Z,23.73
2018-11-29T11:23:12.970Z,34.03
2018-11-29T11:25:41.103Z,28.45
2018-11-29T11:28:09.929Z,28.95
2018-11-29T11:30:42.521Z,29.55
2018-11-29T11:33:10.693Z,25.72
2018-11-29T11:35:38.836Z,28.02
2018-11-29T11:38:07.016Z,27.42
2018-11-29T11:40:35.139Z,24.60
2018-11-29T11:43:05.409Z,29.48
2018-11-29T11:45:31.496Z,30.97
2018-11-29T11:48:03.147Z,27.98
2018-11-29T11:50:27.799Z,30.17
2018-11-29T11:52:56.165Z,31.60
2018-11-29T11:55:30.064Z,25.85
2018-11-29T11:57:52.609Z,22.75
2018-11-29T12:00:24.842Z,39.42
2018-11-29T12:02:55.510Z,30.43
2018-11-29T12:05:23.661Z,26.35
2018-11-29T12:07:51.982Z,24.98
2018-11-29T12:10:20.229Z,32.48
2018-11-29T12:12:48.360Z,29.77
2018-11-29T12:15:16.489Z,29.80
2018-11-29T12:17:46.281Z,34.88
2018-11-29T12:20:16.381Z,31.30
2018-11-29T12:22:44.551Z,31.37
2018-11-29T12:25:13.805Z,32.23
2018-11-29T12:27:43.427Z,28.60
2018-11-29T12:30:17.766Z,32.15
2018-11-29T12:32:46.073Z,28.92
2018-11-29T12:35:14.624Z,24.75
2018-11-29T12:37:42.741Z,25.05
2018-11-29T12:40:12.098Z,27.45
2018-11-29T12:42:40.221Z,25.25
2018-11-29T12:45:09.950Z,24.75
2018-11-29T12:47:38.098Z,29.82
2018-11-29T12:50:09.807Z,29.50
2018-11-29T12:52:37.982Z,32.67
2018-11-29T12:55:07.251Z,22.70
2018-11-29T12:57:35.367Z,22.45
2018-11-29T13:00:04.404Z,28.87
2018-11-29T13:02:32.561Z,31.23
2018-11-29T13:05:00.793Z,31.20
2018-11-29T13:07:28.897Z,23.47
2018-11-29T13:09:57.017Z,25.75
2018-11-29T13:12:25.157Z,23.60
2018-11-29T13:14:54.440Z,24.70
2018-11-29T13:17:22.631Z,27.90
2018-11-29T13:19:50.760Z,26.12
2018-11-29T13:22:18.879Z,27.77
2018-11-29T13:24:46.993Z,20.50
2018-11-29T13:27:17.991Z,34.60
2018-11-29T13:29:46.260Z,34.18
2018-11-29T13:32:14.439Z,29.30
2018-11-29T13:34:42.749Z,24.65
2018-11-29T13:37:10.897Z,25.25
2018-11-29T13:39:39.081Z,26.02
2018-11-29T13:42:07.235Z,18.85
2018-11-29T13:44:35.352Z,26.48
2018-11-29T13:47:04.181Z,22.42
2018-11-29T13:49:32.407Z,30.57
2018-11-29T13:52:00.519Z,27.87
2018-11-29T13:54:28.959Z,24.70
2018-11-29T13:56:57.322Z,25.37
2018-11-29T13:59:25.466Z,25.45
2018-11-29T14:01:53.566Z,20.20
2018-11-29T14:04:21.693Z,25.80
2018-11-29T14:06:49.819Z,18.05
2018-11-29T14:09:17.932Z,18.85
2018-11-29T14:11:46.108Z,22.07
2018-11-29T14:14:14.351Z,21.17
2018-11-29T14:16:43.243Z,18.52
2018-11-29T14:19:11.380Z,22.32
2018-11-29T14:21:39.565Z,33.95
2018-11-29T14:24:07.687Z,21.68
2018-11-29T14:26:35.816Z,20.40
2018-11-29T14:29:03.967Z,25.82
2018-11-29T14:31:32.135Z,35.52
2018-11-29T14:34:00.359Z,24.92
2018-11-29T14:36:28.535Z,25.85
2018-11-29T14:38:56.663Z,30.85
2018-11-29T14:41:24.806Z,25.02
2018-11-29T14:43:52.981Z,22.05
2018-11-29T14:46:21.224Z,25.60
2018-11-29T14:48:49.312Z,26.40
2018-11-29T14:51:17.467Z,22.10
2018-11-29T14:53:45.649Z,18.27
2018-11-29T14:56:13.827Z,18.48
2018-11-29T14:58:41.977Z,20.00
2018-11-29T15:01:10.278Z,20.68
2018-11-29T15:03:38.507Z,28.32
2018-11-29T15:06:07.110Z,19.67
2018-11-29T15:08:35.289Z,18.65
2018-11-29T15:11:03.511Z,24.15
2018-11-29T15:13:31.669Z,20.37
2018-11-29T15:15:59.840Z,16.17
2018-11-29T15:18:29.377Z,23.30
2018-11-29T15:20:57.580Z,20.10
2018-11-29T15:23:25.756Z,17.82
2018-11-29T15:25:53.931Z,25.48
2018-11-29T15:28:22.115Z,18.70
2018-11-29T15:30:50.381Z,20.50
2018-11-29T15:33:18.487Z,25.40
2018-11-29T15:35:46.593Z,21.65
2018-11-29T15:38:14.773Z,24.37
2018-11-29T15:40:42.892Z,21.85
2018-11-29T15:43:11.078Z,23.02
2018-11-29T15:45:39.309Z,22.80
2018-11-29T15:48:07.453Z,32.48
2018-11-29T15:50:35.831Z,21.82
2018-11-29T15:53:04.163Z,25.30
2018-11-29T15:55:32.316Z,21.55
2018-11-29T15:58:00.535Z,25.37
2018-11-29T16:00:29.582Z,26.65
2018-11-29T16:02:59.018Z,20.92
2018-11-29T16:05:27.180Z,24.45
2018-11-29T16:07:55.490Z,26.20
2018-11-29T16:10:24.738Z,23.50
2018-11-29T16:12:52.923Z,29.00
2018-11-29T16:15:21.484Z,23.83
2018-11-29T16:17:50.585Z,25.10
2018-11-29T16:20:27.839Z,25.88
2018-11-29T16:22:56.041Z,24.25
2018-11-29T16:25:24.243Z,20.48
2018-11-29T16:27:52.442Z,23.95
2018-11-29T16:30:30.954Z,35.05
2018-11-29T16:33:00.889Z,29.35
2018-11-29T16:35:29.042Z,26.80
2018-11-29T16:37:57.156Z,30.68
2018-11-29T16:40:25.332Z,28.90
2018-11-29T16:42:53.436Z,20.95
2018-11-29T16:45:24.300Z,23.40
2018-11-29T16:47:52.558Z,29.37
2018-11-29T16:50:20.660Z,18.20
2018-11-29T16:52:48.952Z,43.65
2018-11-29T16:55:17.084Z,23.87
2018-11-29T16:57:50.666Z,20.80
2018-11-29T17:00:23.593Z,30.75
2018-11-29T17:02:51.755Z,26.82
2018-11-29T17:05:20.289Z,17.25
2018-11-29T17:07:48.424Z,30.35
2018-11-29T17:10:18.626Z,26.05
2018-11-29T17:12:48.689Z,29.87
2018-11-29T17:15:18.555Z,22.85
2018-11-29T17:17:46.812Z,16.67
2018-11-29T17:20:15.998Z,23.42
2018-11-29T17:22:45.027Z,22.90
2018-11-29T17:25:13.322Z,18.48
2018-11-29T17:27:41.512Z,24.67
2018-11-29T17:30:19.420Z,16.85
2018-11-29T17:32:48.122Z,18.90
2018-11-29T17:35:16.277Z,19.73
2018-11-29T17:37:44.489Z,22.73
2018-11-29T17:40:14.569Z,21.55
2018-11-29T17:42:42.907Z,19.05
2018-11-29T17:45:16.258Z,21.30
2018-11-29T17:47:44.966Z,23.57
2018-11-29T17:50:49.267Z,26.27
2018-11-29T17:53:17.459Z,27.60
2018-11-29T17:55:45.589Z,21.27
2018-11-29T17:58:14.764Z,27.50
2018-11-29T18:00:44.569Z,23.57
2018-11-29T18:03:13.946Z,18.57
2018-11-29T18:05:42.777Z,23.60
2018-11-29T18:08:10.955Z,32.67
2018-11-29T18:10:40.102Z,19.90
2018-11-29T18:13:11.207Z,19.27
2018-11-29T18:15:39.389Z,17.52
2018-11-29T18:18:07.545Z,26.55
2018-11-29T18:20:35.990Z,20.75
2018-11-29T18:23:04.150Z,14.00
2018-11-29T18:25:32.359Z,19.95
2018-11-29T18:28:00.555Z,19.40
2018-11-29T18:30:28.696Z,22.90
2018-11-29T18:32:57.775Z,18.32
2018-11-29T18:35:25.962Z,20.32
2018-11-29T18:37:54.129Z,19.27
2018-11-29T18:40:22.717Z,15.08
2018-11-29T18:43:03.798Z,17.23
2018-11-29T18:45:33.209Z,19.62
2018-11-29T18:48:02.497Z,18.50
2018-11-29T18:50:30.741Z,12.05
2018-11-29T18:52:59.005Z,18.15
2018-11-29T18:55:27.197Z,14.85
2018-11-29T18:57:56.704Z,13.43
2018-11-29T19:00:34.685Z,16.57
2018-11-29T19:03:02.863Z,20.50
2018-11-29T19:05:31.944Z,20.60
2018-11-29T19:08:00.177Z,15.80
2018-11-29T19:10:28.525Z,20.45
2018-11-29T19:13:01.029Z,23.05
2018-11-29T19:15:29.223Z,17.23
2018-11-29T19:17:57.374Z,18.10
2018-11-29T19:20:25.614Z,20.15
2018-11-29T19:22:53.924Z,14.23
2018-11-29T19:25:22.064Z,21.65
2018-11-29T19:27:50.213Z,17.45
2018-11-29T19:30:19.831Z,20.37
2018-11-29T19:32:49.782Z,21.33
2018-11-29T19:35:18.485Z,19.62
2018-11-29T19:37:46.715Z,36.05
2018-11-29T19:40:15.610Z,19.07
2018-11-29T19:42:43.911Z,14.58
2018-11-29T19:45:13.397Z,26.00
2018-11-29T19:47:42.349Z,20.30
2018-11-29T19:50:13.113Z,15.13
2018-11-29T19:52:41.413Z,14.70
2018-11-29T19:55:13.280Z,20.90
2018-11-29T19:57:42.761Z,24.10
2018-11-29T20:00:12.181Z,15.58
2018-11-29T20:02:40.776Z,25.95
2018-11-29T20:05:10.303Z,16.67
2018-11-29T20:07:38.565Z,16.45
2018-11-29T20:10:08.903Z,18.80
2018-11-29T20:12:37.637Z,22.55
2018-11-29T20:15:10.433Z,17.52
2018-11-29T20:17:38.686Z,16.90
2018-11-29T20:20:08.702Z,16.97
2018-11-29T20:22:37.380Z,16.87
2018-11-29T20:25:12.395Z,18.85
2018-11-29T20:27:40.672Z,18.07
2018-11-29T20:30:12.511Z,19.73
2018-11-29T20:32:40.780Z,12.63
2018-11-29T20:35:09.620Z,22.45
2018-11-29T20:37:38.060Z,14.25
2018-11-29T20:40:12.223Z,16.00
2018-11-29T20:42:40.870Z,11.80
2018-11-29T20:45:13.865Z,14.05
2018-11-29T20:47:42.205Z,22.20
2018-11-29T20:50:14.768Z,17.60
2018-11-29T20:52:43.421Z,16.60
2018-11-29T20:55:14.707Z,19.80
2018-11-29T20:57:42.950Z,21.33
2018-11-29T21:00:15.760Z,17.85
2018-11-29T21:02:44.129Z,19.60
2018-11-29T21:05:13.795Z,14.63
2018-11-29T21:07:43.583Z,19.77
2018-11-29T21:10:13.736Z,16.67
2018-11-29T21:12:42.271Z,17.57
2018-11-29T21:15:10.531Z,14.83
2018-11-29T21:20:21.420Z,14.28
2018-11-29T21:22:50.867Z,17.30
2018-11-29T21:25:23.190Z,15.55
2018-11-29T21:27:51.564Z,24.30
2018-11-29T21:30:20.011Z,18.75
2018-11-29T21:32:49.053Z,15.08
2018-11-29T21:35:18.452Z,15.43
2018-11-29T21:37:47.874Z,15.35
2018-11-29T21:40:21.750Z,15.38
2018-11-29T21:42:49.972Z,14.87
2018-11-29T21:45:18.637Z,23.32
2018-11-29T21:47:47.437Z,22.05
2018-11-29T21:50:15.671Z,18.17
2018-11-29T21:52:43.894Z,23.07
2018-11-29T21:55:12.516Z,17.67
2018-11-29T21:57:42.673Z,18.37
2018-11-29T22:00:15.729Z,16.00
2018-11-29T22:02:46.753Z,25.35
2018-11-29T22:05:17.363Z,19.98
2018-11-29T22:07:46.005Z,17.27
2018-11-29T22:10:15.605Z,19.92
2018-11-29T22:12:45.110Z,16.35
2018-11-29T22:15:13.903Z,19.05
2018-11-29T22:18:45.941Z,18.20
2018-11-29T22:21:14.422Z,17.42
2018-11-29T22:23:43.115Z,13.90
2018-11-29T22:26:13.817Z,19.70
2018-11-29T22:28:42.762Z,18.77
2018-11-29T22:31:11.682Z,18.37
2018-11-29T22:33:40.282Z,13.72
2018-11-29T22:36:08.917Z,18.75
2018-11-29T22:38:38.736Z,19.27
2018-11-29T22:41:07.183Z,17.75
2018-11-29T22:43:35.382Z,16.97
2018-11-29T22:46:03.592Z,24.18
2018-11-29T22:48:31.874Z,30.62
2018-11-29T22:51:00.132Z,19.90
2018-11-29T22:53:28.267Z,21.35
2018-11-29T22:55:56.439Z,12.13
2018-11-29T22:58:24.633Z,16.55
2018-11-29T23:00:53.848Z,22.82
2018-11-29T23:03:22.270Z,19.17
2018-11-29T23:05:50.447Z,26.77
2018-11-29T23:08:18.651Z,23.38
2018-11-29T23:10:46.845Z,33.55
2018-11-29T23:13:15.079Z,30.88
2018-11-29T23:15:43.571Z,26.65
2018-11-29T23:18:12.942Z,26.00
2018-11-29T23:20:41.274Z,25.37
2018-11-29T23:23:09.356Z,19.48
2018-11-29T23:25:37.601Z,21.17
2018-11-29T23:28:08.218Z,25.02
2018-11-29T23:30:36.392Z,23.98
2018-11-29T23:33:04.522Z,20.37
2018-11-29T23:35:32.660Z,24.55
2018-11-29T23:38:00.781Z,26.93
2018-11-29T23:40:29.574Z,22.05
2018-11-29T23:42:57.737Z,32.45
2018-11-29T23:45:26.384Z,19.42
2018-11-29T23:47:54.596Z,14.53
2018-11-29T23:50:22.738Z,15.68
2018-11-29T23:52:50.943Z,15.85
2018-11-29T23:55:20.504Z,19.40
2018-11-29T23:57:49.004Z,16.82
